Time;durP1;ratioP1;P1;durP2;ratioP2;P2;SDS_P1;SDS_P2;PMS_P1;PMS_P2;Temp;Humidity;BMP_temperature;BMP_pressure;BME280_temperature;BME280_humidity;BME280_pressure;Samples;Min_cycle;Max_cycle;Signal;HPM_P1;HPM_P2
2023/09/09 00:00:41;;;;;;;0.10;0.10;;;19.30;99.90;;;;;;4984295;28;21793;-81
2023/09/09 00:03:07;;;;;;;0.10;0.10;;;19.40;99.90;;;;;;4992086;28;20215;-81
2023/09/09 00:05:36;;;;;;;0.10;0.10;;;19.40;99.90;;;;;;4992934;28;20706;-81
2023/09/09 00:08:02;;;;;;;0.10;0.10;;;19.40;99.90;;;;;;5000904;28;20267;-81
2023/09/09 00:10:29;;;;;;;0.10;0.10;;;19.40;99.90;;;;;;4992347;28;20275;-81
2023/09/09 00:12:56;;;;;;;0.10;0.10;;;19.40;99.90;;;;;;4983672;28;20208;-82
2023/09/09 00:15:22;;;;;;;0.10;0.10;;;19.40;99.90;;;;;;4985361;28;20275;-81
2023/09/09 00:17:47;;;;;;;0.10;0.10;;;19.40;99.90;;;;;;4984255;28;21136;-81
2023/09/09 00:20:14;;;;;;;0.10;0.10;;;19.40;99.90;;;;;;4986560;28;20200;-81
2023/09/09 00:22:40;;;;;;;0.10;0.10;;;19.40;99.90;;;;;;5000811;28;20208;-80
2023/09/09 00:25:06;;;;;;;0.10;0.10;;;19.30;99.90;;;;;;4992978;28;20539;-82
2023/09/09 00:27:32;;;;;;;0.10;0.10;;;19.30;99.90;;;;;;4986167;28;20184;-81
2023/09/09 00:29:57;;;;;;;0.10;0.10;;;19.20;99.90;;;;;;4985274;28;20291;-82
2023/09/09 00:32:23;;;;;;;0.10;0.10;;;19.20;99.90;;;;;;4985696;28;20215;-81
2023/09/09 00:34:48;;;;;;;0.10;0.10;;;19.20;99.90;;;;;;4985631;28;20674;-81
2023/09/09 00:37:14;;;;;;;0.10;0.10;;;19.20;99.90;;;;;;4992723;28;20233;-81
2023/09/09 00:39:39;;;;;;;0.10;0.10;;;19.20;99.90;;;;;;4986064;28;20711;-81
2023/09/09 00:42:05;;;;;;;0.10;0.10;;;19.10;99.90;;;;;;4985834;28;20323;-81
2023/09/09 00:44:31;;;;;;;0.10;0.10;;;19.20;99.90;;;;;;4992094;28;20246;-81
2023/09/09 00:46:57;;;;;;;0.10;0.10;;;19.20;99.90;;;;;;4986145;28;20204;-81
2023/09/09 00:49:23;;;;;;;0.10;0.10;;;19.20;99.90;;;;;;5001179;28;21208;-81
2023/09/09 00:51:49;;;;;;;0.10;0.10;;;19.30;99.90;;;;;;4986594;28;20582;-81
2023/09/09 00:54:15;;;;;;;0.10;0.10;;;19.20;99.90;;;;;;4992732;28;20237;-81
2023/09/09 00:56:41;;;;;;;0.10;0.10;;;19.20;99.90;;;;;;4990844;28;20636;-81
2023/09/09 00:59:07;;;;;;;0.10;0.10;;;19.20;99.90;;;;;;5000592;28;20640;-81
2023/09/09 01:01:32;;;;;;;0.10;0.10;;;19.20;99.90;;;;;;4992160;28;20228;-81
2023/09/09 01:03:59;;;;;;;0.10;0.10;;;19.20;99.90;;;;;;4981902;28;20240;-81
2023/09/09 01:06:24;;;;;;;0.10;0.10;;;19.10;99.90;;;;;;4990307;28;20208;-81
2023/09/09 01:08:50;;;;;;;0.20;0.20;;;19.10;99.90;;;;;;4982725;28;20199;-81
2023/09/09 01:11:16;;;;;;;0.10;0.10;;;19.00;99.90;;;;;;4989656;28;20187;-81
2023/09/09 01:13:41;;;;;;;0.10;0.10;;;19.00;99.90;;;;;;4990266;28;20282;-81
2023/09/09 01:16:08;;;;;;;0.10;0.10;;;19.00;99.90;;;;;;4985416;28;20665;-81
2023/09/09 01:18:34;;;;;;;0.10;0.10;;;19.00;99.90;;;;;;4991061;28;20223;-81
2023/09/09 01:21:11;;;;;;;0.10;0.10;;;18.90;99.90;;;;;;4984536;28;20671;-81
2023/09/09 01:23:38;;;;;;;0.10;0.10;;;18.90;99.90;;;;;;4990872;28;20216;-81
2023/09/09 01:26:03;;;;;;;0.10;0.10;;;18.80;99.90;;;;;;4983632;28;20230;-81
2023/09/09 01:28:29;;;;;;;0.10;0.10;;;18.80;99.90;;;;;;4985189;28;20251;-81
2023/09/09 01:30:55;;;;;;;0.10;0.10;;;18.80;99.90;;;;;;4984175;28;20730;-81
2023/09/09 01:33:20;;;;;;;0.10;0.10;;;18.80;99.90;;;;;;4986296;28;20262;-81
2023/09/09 01:35:46;;;;;;;0.10;0.10;;;18.70;99.90;;;;;;4983249;28;20200;-81
2023/09/09 01:38:12;;;;;;;0.10;0.10;;;18.70;99.90;;;;;;4983473;28;20196;-81
2023/09/09 01:40:38;;;;;;;0.10;0.10;;;18.70;99.90;;;;;;4990106;28;20224;-81
2023/09/09 01:43:03;;;;;;;0.10;0.10;;;18.70;99.90;;;;;;4991158;28;20281;-81
2023/09/09 01:45:29;;;;;;;0.10;0.10;;;18.70;99.90;;;;;;4982463;28;20219;-81
2023/09/09 01:47:55;;;;;;;0.10;0.10;;;18.70;99.90;;;;;;4990581;28;20533;-81
2023/09/09 01:50:20;;;;;;;0.10;0.10;;;18.70;99.90;;;;;;4989710;28;20210;-81
2023/09/09 01:52:46;;;;;;;0.10;0.10;;;18.70;99.90;;;;;;4983749;28;20204;-81
2023/09/09 01:55:12;;;;;;;0.10;0.10;;;18.60;99.90;;;;;;4983548;28;20198;-82
2023/09/09 01:57:37;;;;;;;0.10;0.10;;;18.60;99.90;;;;;;4982786;28;20198;-81
2023/09/09 02:00:09;;;;;;;0.10;0.10;;;18.60;99.90;;;;;;4984301;28;20188;-81
2023/09/09 02:02:36;;;;;;;0.10;0.10;;;18.60;99.90;;;;;;4982977;28;20195;-81
2023/09/09 02:05:02;;;;;;;0.10;0.10;;;18.60;99.90;;;;;;4983376;28;20184;-81
2023/09/09 02:07:28;;;;;;;0.10;0.10;;;18.60;99.90;;;;;;4981904;28;20671;-81
2023/09/09 02:09:53;;;;;;;0.10;0.10;;;18.60;99.90;;;;;;4989313;28;20208;-81
2023/09/09 02:12:19;;;;;;;0.10;0.10;;;18.50;99.90;;;;;;4982134;28;20217;-81
2023/09/09 02:14:44;;;;;;;0.10;0.10;;;18.50;99.90;;;;;;4983821;28;20586;-81
2023/09/09 02:17:11;;;;;;;0.10;0.10;;;18.50;99.90;;;;;;4990211;28;20202;-81
2023/09/09 02:19:36;;;;;;;0.10;0.10;;;18.50;99.90;;;;;;4981681;28;20183;-81
2023/09/09 02:22:02;;;;;;;0.10;0.10;;;18.40;99.90;;;;;;4998982;28;20198;-81
2023/09/09 02:24:28;;;;;;;0.10;0.10;;;18.40;99.90;;;;;;4991321;28;20278;-81
2023/09/09 02:26:53;;;;;;;0.10;0.10;;;18.30;99.90;;;;;;4989987;28;20261;-81
2023/09/09 02:29:19;;;;;;;0.10;0.10;;;18.30;99.90;;;;;;4983675;28;20180;-81
2023/09/09 02:31:44;;;;;;;0.10;0.10;;;18.30;99.90;;;;;;4989462;28;20187;-81
2023/09/09 02:34:10;;;;;;;0.10;0.10;;;18.30;99.90;;;;;;4990526;28;20214;-81
2023/09/09 02:36:35;;;;;;;0.10;0.10;;;18.20;99.90;;;;;;4989452;28;20558;-81
2023/09/09 02:39:01;;;;;;;0.10;0.10;;;18.30;99.90;;;;;;4990538;28;20184;-81
2023/09/09 02:41:27;;;;;;;0.10;0.10;;;18.20;99.90;;;;;;4982198;28;20199;-81
2023/09/09 02:43:52;;;;;;;0.10;0.10;;;18.20;99.90;;;;;;4981228;28;20208;-81
2023/09/09 02:46:20;;;;;;;0.10;0.10;;;18.20;99.90;;;;;;4989921;28;20300;-82
2023/09/09 02:48:45;;;;;;;0.10;0.10;;;18.20;99.90;;;;;;4989305;28;20231;-81
2023/09/09 02:51:11;;;;;;;0.10;0.10;;;18.20;99.90;;;;;;4988485;28;20303;-81
2023/09/09 02:53:36;;;;;;;0.10;0.10;;;18.10;99.90;;;;;;4982003;28;20211;-81
2023/09/09 02:56:02;;;;;;;0.10;0.10;;;18.10;99.90;;;;;;4984039;28;20195;-81
2023/09/09 02:58:28;;;;;;;0.10;0.10;;;18.10;99.90;;;;;;4989442;28;20183;-81
2023/09/09 03:00:53;;;;;;;0.10;0.10;;;18.00;99.90;;;;;;4988293;28;20200;-81
2023/09/09 03:03:20;;;;;;;0.10;0.10;;;18.00;99.90;;;;;;4987846;28;20689;-81
2023/09/09 03:05:45;;;;;;;0.10;0.10;;;18.00;99.90;;;;;;4980939;28;20290;-81
2023/09/09 03:08:11;;;;;;;0.10;0.10;;;17.90;99.90;;;;;;4983664;28;20232;-82
2023/09/09 03:10:37;;;;;;;0.10;0.10;;;17.90;99.90;;;;;;4986807;28;20664;-81
2023/09/09 03:13:03;;;;;;;0.10;0.10;;;17.90;99.90;;;;;;4982103;28;20201;-81
2023/09/09 03:15:29;;;;;;;0.10;0.10;;;17.90;99.90;;;;;;4988571;28;20187;-81
2023/09/09 03:17:55;;;;;;;0.10;0.10;;;17.90;99.90;;;;;;4988293;28;20275;-81
2023/09/09 03:20:20;;;;;;;1.27;1.27;;;17.90;99.90;;;;;;4980549;28;20738;-81
2023/09/09 03:22:46;;;;;;;0.10;0.10;;;17.80;99.90;;;;;;4987771;28;20261;-81
2023/09/09 03:25:11;;;;;;;0.10;0.10;;;17.80;99.90;;;;;;4983519;28;20184;-81
2023/09/09 03:27:37;;;;;;;0.10;0.10;;;17.80;99.90;;;;;;4987115;28;20190;-81
2023/09/09 03:30:03;;;;;;;0.10;0.10;;;17.80;99.90;;;;;;4981096;28;20278;-81
2023/09/09 03:32:30;;;;;;;0.10;0.10;;;17.80;99.90;;;;;;4988032;28;20679;-81
2023/09/09 03:34:55;;;;;;;0.10;0.10;;;17.70;99.90;;;;;;4981035;28;21128;-81
2023/09/09 03:37:21;;;;;;;0.10;0.10;;;17.70;99.90;;;;;;4981361;28;20199;-81
2023/09/09 03:39:47;;;;;;;0.10;0.10;;;17.70;99.90;;;;;;4982596;28;20195;-81
2023/09/09 03:42:13;;;;;;;0.10;0.10;;;17.70;99.90;;;;;;4978918;28;20219;-81
2023/09/09 03:44:38;;;;;;;0.10;0.10;;;17.60;99.90;;;;;;4987724;28;20276;-81
2023/09/09 03:47:04;;;;;;;0.10;0.10;;;17.50;99.90;;;;;;4983005;28;20215;-80
2023/09/09 03:49:30;;;;;;;0.10;0.10;;;17.50;99.90;;;;;;4990817;28;20188;-80
2023/09/09 03:51:56;;;;;;;0.10;0.10;;;17.50;99.90;;;;;;4991257;28;20185;-80
2023/09/09 03:54:21;;;;;;;0.10;0.10;;;17.50;99.90;;;;;;4982430;28;20194;-80
2023/09/09 03:56:47;;;;;;;0.10;0.10;;;17.50;99.90;;;;;;4984303;28;20176;-80
2023/09/09 03:59:12;;;;;;;0.10;0.10;;;17.50;99.90;;;;;;4984219;28;20194;-80
2023/09/09 04:01:39;;;;;;;0.10;0.10;;;17.50;99.90;;;;;;4986018;28;20192;-80
2023/09/09 04:04:05;;;;;;;0.10;0.10;;;17.50;99.90;;;;;;4984811;28;20687;-80
2023/09/09 04:06:31;;;;;;;0.10;0.10;;;17.50;99.90;;;;;;4982283;28;20272;-80
2023/09/09 04:08:57;;;;;;;0.10;0.10;;;17.50;99.90;;;;;;4984077;28;20238;-81
2023/09/09 04:11:23;;;;;;;0.10;0.10;;;17.50;99.90;;;;;;4986068;28;20539;-81
2023/09/09 04:13:49;;;;;;;0.10;0.10;;;17.50;99.90;;;;;;4977409;28;20200;-81
2023/09/09 04:16:14;;;;;;;0.10;0.10;;;17.50;99.90;;;;;;4980507;28;20660;-81
2023/09/09 04:18:40;;;;;;;0.10;0.10;;;17.50;99.90;;;;;;4979244;28;20184;-81
2023/09/09 04:21:05;;;;;;;0.10;0.10;;;17.60;99.90;;;;;;4978740;28;20197;-81
2023/09/09 04:23:31;;;;;;;0.10;0.10;;;17.60;99.90;;;;;;4987525;28;20204;-81
2023/09/09 04:25:56;;;;;;;0.10;0.10;;;17.50;99.90;;;;;;4976079;28;20236;-81
2023/09/09 04:28:24;;;;;;;0.10;0.10;;;17.50;99.90;;;;;;4986645;28;20271;-81
2023/09/09 04:30:49;;;;;;;0.10;0.10;;;17.50;99.90;;;;;;4984983;28;20714;-81
2023/09/09 04:33:15;;;;;;;0.10;0.10;;;17.40;99.90;;;;;;4987103;28;20200;-81
2023/09/09 04:35:42;;;;;;;0.10;0.10;;;17.50;99.90;;;;;;4985612;28;20690;-81
2023/09/09 04:38:09;;;;;;;0.10;0.10;;;17.40;99.90;;;;;;4987018;28;20196;-81
2023/09/09 04:40:36;;;;;;;0.10;0.10;;;17.40;99.90;;;;;;4981986;28;20184;-81
2023/09/09 04:43:02;;;;;;;0.10;0.10;;;17.40;99.90;;;;;;4982738;28;20289;-81
2023/09/09 04:45:27;;;;;;;0.10;0.10;;;17.40;99.90;;;;;;4983386;28;20222;-81
2023/09/09 04:47:52;;;;;;;0.10;0.10;;;17.40;99.90;;;;;;4983480;28;20315;-81
2023/09/09 04:50:19;;;;;;;0.10;0.10;;;17.30;99.90;;;;;;4989855;28;20252;-81
2023/09/09 04:52:46;;;;;;;0.10;0.10;;;17.30;99.90;;;;;;4981935;28;20208;-81
2023/09/09 04:55:12;;;;;;;0.10;0.10;;;17.30;99.90;;;;;;4979945;28;20227;-81
2023/09/09 04:57:38;;;;;;;0.10;0.10;;;17.30;99.90;;;;;;4989662;28;20187;-81
2023/09/09 05:00:06;;;;;;;0.10;0.10;;;17.40;99.90;;;;;;4985485;28;20191;-80
2023/09/09 05:02:33;;;;;;;0.10;0.10;;;17.30;99.90;;;;;;4985606;28;20231;-80
2023/09/09 05:04:59;;;;;;;0.10;0.10;;;17.30;99.90;;;;;;4992596;28;20582;-80
2023/09/09 05:07:24;;;;;;;0.10;0.10;;;17.30;99.90;;;;;;4983778;28;20219;-80
2023/09/09 05:09:50;;;;;;;0.10;0.10;;;17.30;99.90;;;;;;4981312;28;20184;-79
2023/09/09 05:12:15;;;;;;;0.10;0.10;;;17.30;99.90;;;;;;4981199;28;20203;-80
2023/09/09 05:14:41;;;;;;;0.10;0.10;;;17.20;99.90;;;;;;4989504;28;20263;-80
2023/09/09 05:17:06;;;;;;;0.10;0.10;;;17.20;99.90;;;;;;4987025;28;20192;-79
2023/09/09 05:19:32;;;;;;;0.10;0.10;;;17.30;99.90;;;;;;4982020;28;20235;-80
2023/09/09 05:21:57;;;;;;;0.10;0.10;;;17.20;99.90;;;;;;4981273;28;20231;-80
2023/09/09 05:24:23;;;;;;;0.10;0.10;;;17.40;99.90;;;;;;4979538;28;20196;-79
2023/09/09 05:26:48;;;;;;;0.10;0.10;;;17.50;99.90;;;;;;4986730;28;20199;-81
2023/09/09 05:29:14;;;;;;;0.10;0.10;;;17.50;99.90;;;;;;4980892;28;20243;-80
2023/09/09 05:31:39;;;;;;;0.10;0.10;;;17.60;99.90;;;;;;4983646;28;20758;-80
2023/09/09 05:34:05;;;;;;;0.10;0.10;;;17.60;99.90;;;;;;4981001;28;20212;-81
2023/09/09 05:36:30;;;;;;;0.10;0.10;;;17.50;99.90;;;;;;4993137;28;20221;-80
2023/09/09 05:38:59;;;;;;;0.10;0.10;;;17.50;99.90;;;;;;4988877;28;20559;-80
2023/09/09 05:41:29;;;;;;;0.10;0.10;;;17.40;99.90;;;;;;4978233;28;20196;-79
2023/09/09 05:43:55;;;;;;;0.10;0.10;;;17.40;99.90;;;;;;4980101;28;20237;-80
2023/09/09 05:46:21;;;;;;;0.10;0.10;;;17.60;99.90;;;;;;4981437;28;20201;-80
2023/09/09 05:48:46;;;;;;;0.10;0.10;;;17.70;99.90;;;;;;4987480;28;20264;-81
2023/09/09 05:51:12;;;;;;;0.10;0.10;;;17.80;99.90;;;;;;4978914;28;20226;-79
2023/09/09 05:53:38;;;;;;;0.10;0.10;;;17.90;99.90;;;;;;4981290;28;20200;-80
2023/09/09 05:56:03;;;;;;;0.10;0.10;;;17.90;99.90;;;;;;4981452;28;20655;-81
2023/09/09 05:58:29;;;;;;;0.10;0.10;;;18.00;99.90;;;;;;4987356;28;20218;-81
2023/09/09 06:00:54;;;;;;;0.10;0.10;;;18.20;99.90;;;;;;4987778;28;20238;-81
2023/09/09 06:03:20;;;;;;;0.10;0.10;;;18.20;99.90;;;;;;4984456;28;20207;-81
2023/09/09 06:05:46;;;;;;;0.10;0.10;;;18.30;99.90;;;;;;4986587;28;20283;-80
2023/09/09 06:08:12;;;;;;;0.10;0.10;;;18.50;99.90;;;;;;4982317;28;20187;-80
2023/09/09 06:10:38;;;;;;;0.10;0.10;;;18.70;99.90;;;;;;4981106;28;20187;-79
2023/09/09 06:13:03;;;;;;;0.10;0.10;;;18.80;99.90;;;;;;4981583;28;20211;-79
2023/09/09 06:15:29;;;;;;;0.10;0.10;;;18.90;99.90;;;;;;4982657;28;20210;-80
2023/09/09 06:17:57;;;;;;;0.10;0.10;;;18.80;99.90;;;;;;4985657;28;20536;-80
2023/09/09 06:20:23;;;;;;;0.10;0.10;;;18.80;99.90;;;;;;4985851;28;20219;-80
2023/09/09 06:22:48;;;;;;;0.10;0.10;;;18.90;99.90;;;;;;4981361;28;20251;-80
2023/09/09 06:25:14;;;;;;;0.10;0.10;;;18.90;99.90;;;;;;4980428;28;20202;-79
2023/09/09 06:27:39;;;;;;;0.10;0.10;;;19.00;99.90;;;;;;4986421;28;20181;-81
2023/09/09 06:30:06;;;;;;;0.10;0.10;;;19.00;99.90;;;;;;4986669;28;20274;-82
2023/09/09 06:32:31;;;;;;;0.10;0.10;;;19.00;99.90;;;;;;4980773;28;20227;-80
2023/09/09 06:34:57;;;;;;;0.10;0.10;;;19.10;99.90;;;;;;4992049;28;20241;-80
2023/09/09 06:37:23;;;;;;;0.10;0.10;;;19.10;99.90;;;;;;4983968;28;20282;-80
2023/09/09 06:39:49;;;;;;;0.10;0.10;;;19.30;99.90;;;;;;4991274;28;20190;-81
2023/09/09 06:42:15;;;;;;;0.10;0.10;;;19.40;99.90;;;;;;4981189;28;20294;-80
2023/09/09 06:44:40;;;;;;;0.10;0.10;;;19.50;99.90;;;;;;4986432;28;20532;-80
2023/09/09 06:47:06;;;;;;;0.10;0.10;;;19.70;99.90;;;;;;4985183;28;20218;-81
2023/09/09 06:49:31;;;;;;;0.10;0.10;;;19.90;99.90;;;;;;4983097;28;20198;-80
2023/09/09 06:51:57;;;;;;;0.10;0.10;;;20.00;99.90;;;;;;4991833;28;20529;-80
2023/09/09 06:54:22;;;;;;;0.10;0.10;;;20.20;99.90;;;;;;4979763;28;20198;-80
2023/09/09 06:56:48;;;;;;;0.10;0.10;;;20.30;99.90;;;;;;4990008;28;20188;-80
2023/09/09 06:59:13;;;;;;;0.10;0.10;;;20.40;99.90;;;;;;4979593;28;20202;-80
2023/09/09 07:01:39;;;;;;;0.10;0.10;;;20.50;99.90;;;;;;4996321;28;20725;-80
2023/09/09 07:04:05;;;;;;;0.10;0.10;;;20.70;99.90;;;;;;4977859;28;21101;-80
2023/09/09 07:06:30;;;;;;;0.10;0.10;;;20.80;99.90;;;;;;4988130;28;20205;-80
2023/09/09 07:08:56;;;;;;;0.10;0.10;;;20.90;99.90;;;;;;4983359;28;20195;-80
2023/09/09 07:11:22;;;;;;;0.10;0.10;;;21.00;99.90;;;;;;4984126;28;20208;-80
2023/09/09 07:13:47;;;;;;;0.10;0.10;;;21.20;99.90;;;;;;4982521;28;20207;-80
2023/09/09 07:16:13;;;;;;;0.10;0.10;;;21.30;99.90;;;;;;4991499;28;20203;-80
2023/09/09 07:18:38;;;;;;;0.10;0.10;;;21.40;99.90;;;;;;4984937;28;20262;-80
2023/09/09 07:21:04;;;;;;;0.10;0.10;;;21.50;99.90;;;;;;4988125;28;20199;-80
2023/09/09 07:23:29;;;;;;;0.10;0.10;;;21.70;99.90;;;;;;4990256;28;20551;-80
2023/09/09 07:25:54;;;;;;;0.10;0.10;;;21.80;99.90;;;;;;4990492;28;20610;-80
2023/09/09 07:28:22;;;;;;;0.10;0.10;;;22.00;99.90;;;;;;4989969;28;20184;-79
2023/09/09 07:30:48;;;;;;;0.10;0.10;;;22.00;99.90;;;;;;4988991;28;20271;-80
2023/09/09 07:33:13;;;;;;;0.10;0.10;;;22.20;99.90;;;;;;4987954;28;20216;-80
2023/09/09 07:35:39;;;;;;;0.10;0.10;;;22.20;99.90;;;;;;4981867;28;20184;-79
2023/09/09 07:38:06;;;;;;;0.10;0.10;;;22.30;99.90;;;;;;4980856;28;20196;-81
2023/09/09 07:40:31;;;;;;;0.10;0.10;;;22.40;99.90;;;;;;4989000;28;20609;-81
2023/09/09 07:42:57;;;;;;;0.10;0.10;;;22.50;99.90;;;;;;4987384;28;20266;-81
2023/09/09 07:45:23;;;;;;;0.10;0.10;;;22.60;99.90;;;;;;4978729;28;20192;-80
2023/09/09 07:47:48;;;;;;;0.10;0.10;;;22.80;99.90;;;;;;4981062;28;20286;-81
2023/09/09 07:50:14;;;;;;;0.10;0.10;;;23.00;99.90;;;;;;4980651;28;20211;-81
2023/09/09 07:52:39;;;;;;;0.10;0.10;;;23.10;99.90;;;;;;4978417;28;20206;-81
2023/09/09 07:55:05;;;;;;;0.10;0.10;;;23.30;99.90;;;;;;4981419;28;20188;-81
2023/09/09 07:57:31;;;;;;;0.10;0.10;;;23.30;99.90;;;;;;4980903;28;20205;-81
2023/09/09 07:59:56;;;;;;;0.10;0.10;;;23.50;99.90;;;;;;4988317;28;20219;-81
2023/09/09 08:02:22;;;;;;;0.10;0.10;;;23.60;99.90;;;;;;4979018;28;20699;-81
2023/09/09 08:04:47;;;;;;;0.10;0.10;;;23.70;99.90;;;;;;4983623;28;20287;-80
2023/09/09 08:07:13;;;;;;;0.10;0.10;;;24.00;99.90;;;;;;4988270;28;20234;-80
2023/09/09 08:09:39;;;;;;;0.10;0.10;;;24.00;99.90;;;;;;4990855;28;20546;-80
2023/09/09 08:12:04;;;;;;;0.10;0.10;;;24.10;99.90;;;;;;4983210;28;20759;-80
2023/09/09 08:14:30;;;;;;;0.10;0.10;;;24.30;99.90;;;;;;4985218;28;20189;-80
2023/09/09 08:16:56;;;;;;;0.10;0.10;;;24.40;99.90;;;;;;4986604;28;20243;-79
2023/09/09 08:19:21;;;;;;;0.10;0.10;;;24.30;99.90;;;;;;4988556;28;20184;-80
2023/09/09 08:21:47;;;;;;;0.10;0.10;;;24.40;99.90;;;;;;4993426;28;20242;-80
2023/09/09 08:24:12;;;;;;;0.10;0.10;;;24.50;99.90;;;;;;4985425;28;20214;-80
2023/09/09 08:26:38;;;;;;;0.10;0.10;;;24.70;99.90;;;;;;5004465;28;20204;-80
2023/09/09 08:29:04;;;;;;;0.10;0.10;;;24.80;99.90;;;;;;4989021;28;20194;-80
2023/09/09 08:31:29;;;;;;;0.10;0.10;;;24.90;99.90;;;;;;4993831;28;20212;-81
2023/09/09 08:33:55;;;;;;;0.10;0.10;;;25.10;99.90;;;;;;4988443;28;20204;-80
2023/09/09 08:36:21;;;;;;;0.10;0.10;;;25.20;99.90;;;;;;4987409;28;20176;-80
2023/09/09 08:38:46;;;;;;;0.10;0.10;;;25.30;99.90;;;;;;4988169;28;20177;-80
2023/09/09 08:41:24;;;;;;;0.10;0.10;;;25.30;99.90;;;;;;4986337;28;20198;-80
2023/09/09 08:44:05;;;;;;;0.10;0.10;;;25.40;99.90;;;;;;4988643;28;20207;-80
2023/09/09 08:46:31;;;;;;;0.10;0.10;;;25.60;99.90;;;;;;5000944;28;20246;-80
2023/09/09 08:48:59;;;;;;;0.10;0.10;;;25.30;99.90;;;;;;4986888;28;20218;-80
2023/09/09 08:51:57;;;;;;;0.10;0.10;;;24.80;99.90;;;;;;4989661;28;20184;-81
2023/09/09 08:54:23;;;;;;;0.10;0.10;;;25.30;99.90;;;;;;4990165;28;20192;-81
2023/09/09 08:56:48;;;;;;;0.10;0.10;;;25.30;99.90;;;;;;4990052;28;20184;-81
2023/09/09 08:59:15;;;;;;;0.10;0.10;;;25.20;99.90;;;;;;4984991;28;20211;-80
2023/09/09 09:01:41;;;;;;;0.10;0.10;;;25.60;99.90;;;;;;4986293;28;20255;-80
2023/09/09 09:04:07;;;;;;;0.10;0.10;;;25.90;99.90;;;;;;4987294;28;20292;-80
2023/09/09 09:06:34;;;;;;;0.10;0.10;;;25.60;99.90;;;;;;4989664;28;20292;-80
2023/09/09 09:08:59;;;;;;;0.10;0.10;;;25.80;99.90;;;;;;4994670;28;20235;-81
2023/09/09 09:11:25;;;;;;;0.10;0.10;;;26.20;99.90;;;;;;4984947;28;20192;-80
2023/09/09 09:13:51;;;;;;;0.10;0.10;;;26.50;99.90;;;;;;4984980;28;20662;-80
2023/09/09 09:16:18;;;;;;;0.10;0.10;;;26.50;99.90;;;;;;4986510;28;20242;-80
2023/09/09 09:18:43;;;;;;;0.10;0.10;;;26.40;99.90;;;;;;4994748;28;20275;-80
2023/09/09 09:21:10;;;;;;;0.10;0.10;;;25.80;99.90;;;;;;4992159;28;20216;-80
2023/09/09 09:23:42;;;;;;;0.10;0.10;;;25.80;99.90;;;;;;4988238;28;20204;-80
2023/09/09 09:26:30;;;;;;;0.10;0.10;;;26.20;99.90;;;;;;4986335;28;20675;-80
2023/09/09 09:29:03;;;;;;;0.10;0.10;;;26.60;99.90;;;;;;4987347;28;20185;-80
2023/09/09 09:31:29;;;;;;;0.10;0.10;;;26.90;99.90;;;;;;4987969;28;20176;-80
2023/09/09 09:33:54;;;;;;;0.10;0.10;;;27.00;99.90;;;;;;4993975;28;20208;-80
2023/09/09 09:36:20;;;;;;;0.10;0.10;;;27.10;99.90;;;;;;4985512;28;20671;-80
2023/09/09 09:38:47;;;;;;;0.10;0.10;;;27.20;99.90;;;;;;4985986;28;20208;-80
2023/09/09 09:41:15;;;;;;;0.10;0.10;;;27.10;99.90;;;;;;4986717;28;20216;-80
2023/09/09 09:43:41;;;;;;;0.10;0.10;;;26.50;99.90;;;;;;4985696;28;20207;-80
2023/09/09 09:46:14;;;;;;;0.10;0.10;;;26.60;99.90;;;;;;4986223;28;20266;-80
2023/09/09 09:48:40;;;;;;;0.10;0.10;;;27.00;99.90;;;;;;5001067;28;20264;-80
2023/09/09 09:51:05;;;;;;;0.10;0.10;;;27.30;99.90;;;;;;4986916;28;20222;-80
2023/09/09 09:53:32;;;;;;;0.10;0.10;;;27.70;99.90;;;;;;4993007;28;20323;-80
2023/09/09 09:55:58;;;;;;;0.10;0.10;;;27.90;99.90;;;;;;4987609;28;20204;-80
2023/09/09 09:58:26;;;;;;;0.10;0.10;;;28.10;99.90;;;;;;4993690;28;20243;-80
2023/09/09 10:00:53;;;;;;;0.10;0.10;;;28.20;99.90;;;;;;4993321;28;20191;-80
2023/09/09 10:03:26;;;;;;;0.10;0.10;;;28.40;99.90;;;;;;4986963;28;20212;-80
2023/09/09 10:05:54;;;;;;;0.10;0.10;;;28.00;99.90;;;;;;4987555;28;20254;-80
2023/09/09 10:08:28;;;;;;;0.10;0.10;;;27.90;99.90;;;;;;4985907;28;20191;-80
2023/09/09 10:10:59;;;;;;;0.10;0.10;;;27.90;99.90;;;;;;4987525;28;20187;-80
2023/09/09 10:13:36;;;;;;;0.10;0.10;;;28.30;99.90;;;;;;4987264;28;20207;-80
2023/09/09 10:16:03;;;;;;;0.10;0.10;;;28.60;99.90;;;;;;4989788;28;20194;-80
2023/09/09 10:18:29;;;;;;;0.10;0.10;;;28.70;99.90;;;;;;4987354;28;20199;-80
2023/09/09 10:20:56;;;;;;;1.08;0.63;;;28.00;99.90;;;;;;4993140;28;20774;-80
2023/09/09 10:23:22;;;;;;;0.10;0.10;;;28.00;99.90;;;;;;4991942;28;20267;-80
2023/09/09 10:25:50;;;;;;;0.10;0.10;;;28.00;99.90;;;;;;4987251;28;20239;-80
2023/09/09 10:28:19;;;;;;;0.10;0.10;;;28.40;99.90;;;;;;4989675;28;20215;-80
2023/09/09 10:30:47;;;;;;;0.10;0.10;;;28.30;99.90;;;;;;4986349;28;20200;-80
2023/09/09 10:33:14;;;;;;;0.10;0.10;;;28.70;99.90;;;;;;4985668;28;20207;-80
2023/09/09 10:35:43;;;;;;;0.20;0.20;;;28.50;99.90;;;;;;4992046;28;20592;-81
2023/09/09 10:38:11;;;;;;;0.10;0.10;;;28.80;99.90;;;;;;4981422;28;20339;-80
2023/09/09 10:40:38;;;;;;;0.10;0.10;;;29.10;99.90;;;;;;4985614;28;20187;-80
2023/09/09 10:43:04;;;;;;;0.10;0.10;;;29.30;99.90;;;;;;4986521;28;20226;-80
2023/09/09 10:45:32;;;;;;;0.10;0.10;;;29.50;99.90;;;;;;4986126;28;20192;-80
2023/09/09 10:48:01;;;;;;;0.10;0.10;;;29.20;99.90;;;;;;4991717;28;20727;-80
2023/09/09 10:50:51;;;;;;;0.10;0.10;;;28.80;99.90;;;;;;4984609;28;20180;-80
2023/09/09 10:53:26;;;;;;;0.10;0.10;;;28.70;99.90;;;;;;4982052;28;20208;-80
2023/09/09 10:56:00;;;;;;;0.10;0.10;;;28.50;99.90;;;;;;4979817;28;20211;-80
2023/09/09 10:58:34;;;;;;;0.10;0.10;;;28.20;99.90;;;;;;4992144;28;20176;-80
2023/09/09 11:00:59;;;;;;;0.10;0.10;;;28.60;99.90;;;;;;4984241;28;20192;-80
2023/09/09 11:03:36;;;;;;;0.10;0.10;;;28.90;99.90;;;;;;4990122;28;20212;-80
2023/09/09 11:06:05;;;;;;;0.10;0.10;;;29.20;99.90;;;;;;4984956;28;20240;-80
2023/09/09 11:08:33;;;;;;;0.10;0.10;;;28.90;99.90;;;;;;4991517;28;20191;-80
2023/09/09 11:11:23;;;;;;;0.10;0.10;;;28.90;99.90;;;;;;4991849;28;20180;-80
2023/09/09 11:13:51;;;;;;;0.10;0.10;;;29.10;99.90;;;;;;4991037;28;20220;-80
2023/09/09 11:16:39;;;;;;;0.10;0.10;;;28.30;99.90;;;;;;4984624;28;20180;-80
2023/09/09 11:19:07;;;;;;;0.10;0.10;;;28.40;99.90;;;;;;4983330;28;20198;-80
2023/09/09 11:21:34;;;;;;;0.10;0.10;;;28.90;99.90;;;;;;4989967;28;20238;-80
2023/09/09 11:24:02;;;;;;;0.10;0.10;;;29.30;99.90;;;;;;4983906;28;20203;-80
2023/09/09 11:26:28;;;;;;;0.10;0.10;;;29.20;99.90;;;;;;4979818;28;20191;-80
2023/09/09 11:28:54;;;;;;;0.10;0.10;;;29.50;99.90;;;;;;4989977;28;20663;-80
2023/09/09 11:31:20;;;;;;;0.10;0.10;;;29.20;99.90;;;;;;4984111;28;20180;-80
2023/09/09 11:33:46;;;;;;;0.10;0.10;;;28.90;99.90;;;;;;4982290;28;20219;-80
2023/09/09 11:36:17;;;;;;;0.10;0.10;;;29.40;99.90;;;;;;4984999;28;20187;-80
2023/09/09 11:38:44;;;;;;;1.38;1.38;;;29.60;99.90;;;;;;4996095;28;20261;-81
2023/09/09 11:41:31;;;;;;;0.10;0.10;;;29.10;99.90;;;;;;4976677;28;20558;-81
2023/09/09 11:44:02;;;;;;;0.10;0.10;;;29.20;99.90;;;;;;4979728;28;20208;-81
2023/09/09 11:46:32;;;;;;;0.10;0.10;;;29.70;99.90;;;;;;4982213;28;20232;-81
2023/09/09 11:48:58;;;;;;;0.10;0.10;;;30.10;99.90;;;;;;4989278;28;20184;-81
2023/09/09 11:51:23;;;;;;;0.10;0.10;;;30.30;99.90;;;;;;4981734;28;20195;-81
2023/09/09 11:53:49;;;;;;;0.10;0.10;;;30.50;99.90;;;;;;4986780;28;20204;-82
2023/09/09 11:56:17;;;;;;;0.20;0.20;;;30.70;99.90;;;;;;4981738;28;20268;-81
2023/09/09 11:58:43;;;;;;;0.10;0.10;;;30.90;99.90;;;;;;4984053;28;20222;-81
2023/09/09 12:01:10;;;;;;;0.10;0.10;;;31.00;99.90;;;;;;4983952;28;20233;-81
2023/09/09 12:03:36;;;;;;;0.10;0.10;;;30.80;99.90;;;;;;4986343;28;20211;-81
2023/09/09 12:06:03;;;;;;;0.10;0.10;;;30.50;99.90;;;;;;4989008;28;20215;-81
2023/09/09 12:08:30;;;;;;;0.10;0.10;;;30.80;99.90;;;;;;4982850;28;20258;-81
2023/09/09 12:10:57;;;;;;;0.10;0.10;;;31.00;99.90;;;;;;4983697;28;20184;-81
2023/09/09 12:13:23;;;;;;;0.10;0.10;;;30.70;99.90;;;;;;4991980;28;20203;-81
2023/09/09 12:15:49;;;;;;;0.10;0.10;;;30.10;99.90;;;;;;4991871;28;20232;-81
2023/09/09 12:18:15;;;;;;;0.10;0.10;;;30.50;99.90;;;;;;4982921;28;20188;-81
2023/09/09 12:21:09;;;;;;;0.10;0.10;;;30.90;99.90;;;;;;4997865;28;20312;-81
2023/09/09 12:23:37;;;;;;;0.10;0.10;;;31.20;99.90;;;;;;4997039;28;20649;-81
2023/09/09 12:26:16;;;;;;;0.10;0.10;;;31.10;99.90;;;;;;4984541;28;20203;-82
2023/09/09 12:29:03;;;;;;;0.10;0.10;;;30.90;99.90;;;;;;4984877;28;20181;-81
2023/09/09 12:31:29;;;;;;;0.10;0.10;;;30.90;99.90;;;;;;4983221;28;20182;-81
2023/09/09 12:33:55;;;;;;;0.10;0.10;;;30.30;99.90;;;;;;4982944;28;20212;-82
2023/09/09 12:36:21;;;;;;;0.10;0.10;;;30.10;99.90;;;;;;4986049;28;20678;-81
2023/09/09 12:38:49;;;;;;;0.95;0.95;;;30.50;99.90;;;;;;4986177;28;20189;-78
2023/09/09 12:41:19;;;;;;;0.20;0.20;;;30.90;99.90;;;;;;4979872;28;20180;-79
2023/09/09 12:43:46;;;;;;;0.10;0.10;;;31.20;99.90;;;;;;4980944;28;20216;-83
2023/09/09 12:46:24;;;;;;;0.10;0.10;;;31.40;99.90;;;;;;4987108;28;20553;-83